sensor_id;sensor_type;location;lat;lon;timestamp;P1;durP1;ratioP1;P2;durP2;ratioP2
39502;SDS011;26970;49.900;10.774;2024-01-27T00:02:07;7.72;;;3.67;;
39502;SDS011;26970;49.900;10.774;2024-01-27T00:04:32;8.27;;;2.03;;
39502;SDS011;26970;49.900;10.774;2024-01-27T00:07:00;4.90;;;2.80;;
39502;SDS011;26970;49.900;10.774;2024-01-27T00:09:26;7.75;;;2.28;;
39502;SDS011;26970;49.900;10.774;2024-01-27T00:11:51;11.10;;;2.80;;
39502;SDS011;26970;49.900;10.774;2024-01-27T00:14:17;6.70;;;2.28;;
39502;SDS011;26970;49.900;10.774;2024-01-27T00:16:42;6.07;;;2.25;;
39502;SDS011;26970;49.900;10.774;2024-01-27T00:19:08;9.85;;;2.40;;
39502;SDS011;26970;49.900;10.774;2024-01-27T00:21:34;8.02;;;2.28;;
39502;SDS011;26970;49.900;10.774;2024-01-27T00:23:59;8.40;;;2.40;;
39502;SDS011;26970;49.900;10.774;2024-01-27T00:26:28;6.38;;;2.55;;
39502;SDS011;26970;49.900;10.774;2024-01-27T00:28:53;10.00;;;2.70;;
39502;SDS011;26970;49.900;10.774;2024-01-27T00:31:19;10.88;;;2.47;;
39502;SDS011;26970;49.900;10.774;2024-01-27T00:33:44;12.00;;;2.65;;
39502;SDS011;26970;49.900;10.774;2024-01-27T00:36:10;6.00;;;2.45;;
39502;SDS011;26970;49.900;10.774;2024-01-27T00:38:36;5.43;;;2.25;;
39502;SDS011;26970;49.900;10.774;2024-01-27T00:41:02;6.75;;;2.85;;
39502;SDS011;26970;49.900;10.774;2024-01-27T00:43:28;9.07;;;2.83;;
39502;SDS011;26970;49.900;10.774;2024-01-27T00:45:53;14.98;;;2.72;;
39502;SDS011;26970;49.900;10.774;2024-01-27T00:48:19;13.68;;;3.55;;
39502;SDS011;26970;49.900;10.774;2024-01-27T00:50:45;10.15;;;2.83;;
39502;SDS011;26970;49.900;10.774;2024-01-27T00:53:10;9.38;;;2.58;;
39502;SDS011;26970;49.900;10.774;2024-01-27T00:55:36;7.60;;;2.30;;
39502;SDS011;26970;49.900;10.774;2024-01-27T00:58:01;10.30;;;2.72;;
39502;SDS011;26970;49.900;10.774;2024-01-27T01:00:27;13.88;;;2.88;;
39502;SDS011;26970;49.900;10.774;2024-01-27T01:02:52;8.35;;;2.60;;
39502;SDS011;26970;49.900;10.774;2024-01-27T01:05:18;10.25;;;1.95;;
39502;SDS011;26970;49.900;10.774;2024-01-27T01:07:43;9.25;;;3.03;;
39502;SDS011;26970;49.900;10.774;2024-01-27T01:10:09;4.85;;;2.53;;
39502;SDS011;26970;49.900;10.774;2024-01-27T01:12:35;7.18;;;2.50;;
39502;SDS011;26970;49.900;10.774;2024-01-27T01:15:00;6.00;;;2.35;;
39502;SDS011;26970;49.900;10.774;2024-01-27T01:17:26;12.45;;;2.75;;
39502;SDS011;26970;49.900;10.774;2024-01-27T01:19:51;3.78;;;2.83;;
39502;SDS011;26970;49.900;10.774;2024-01-27T01:22:17;8.07;;;2.50;;
39502;SDS011;26970;49.900;10.774;2024-01-27T01:24:42;5.05;;;2.35;;
39502;SDS011;26970;49.900;10.774;2024-01-27T01:27:08;4.22;;;2.30;;
39502;SDS011;26970;49.900;10.774;2024-01-27T01:29:33;5.15;;;2.53;;
39502;SDS011;26970;49.900;10.774;2024-01-27T01:32:00;8.73;;;2.38;;
39502;SDS011;26970;49.900;10.774;2024-01-27T01:34:27;7.53;;;2.53;;
39502;SDS011;26970;49.900;10.774;2024-01-27T01:36:54;11.85;;;2.83;;
39502;SDS011;26970;49.900;10.774;2024-01-27T01:39:22;13.35;;;2.25;;
39502;SDS011;26970;49.900;10.774;2024-01-27T01:41:47;14.43;;;2.67;;
39502;SDS011;26970;49.900;10.774;2024-01-27T01:44:13;8.55;;;2.75;;
39502;SDS011;26970;49.900;10.774;2024-01-27T01:46:38;6.10;;;2.20;;
39502;SDS011;26970;49.900;10.774;2024-01-27T01:49:04;5.53;;;2.55;;
39502;SDS011;26970;49.900;10.774;2024-01-27T01:51:30;14.73;;;2.60;;
39502;SDS011;26970;49.900;10.774;2024-01-27T01:53:57;4.32;;;2.40;;
39502;SDS011;26970;49.900;10.774;2024-01-27T01:56:23;10.20;;;2.17;;
39502;SDS011;26970;49.900;10.774;2024-01-27T01:58:49;5.68;;;2.20;;
39502;SDS011;26970;49.900;10.774;2024-01-27T02:01:16;10.00;;;3.20;;
39502;SDS011;26970;49.900;10.774;2024-01-27T02:03:56;6.82;;;2.70;;
39502;SDS011;26970;49.900;10.774;2024-01-27T02:06:22;6.85;;;2.50;;
39502;SDS011;26970;49.900;10.774;2024-01-27T02:08:48;11.90;;;2.50;;
39502;SDS011;26970;49.900;10.774;2024-01-27T02:11:13;5.95;;;2.60;;
39502;SDS011;26970;49.900;10.774;2024-01-27T02:13:39;7.85;;;2.42;;
39502;SDS011;26970;49.900;10.774;2024-01-27T02:16:05;7.65;;;2.78;;
39502;SDS011;26970;49.900;10.774;2024-01-27T02:18:30;11.30;;;2.83;;
39502;SDS011;26970;49.900;10.774;2024-01-27T02:20:56;11.57;;;2.50;;
39502;SDS011;26970;49.900;10.774;2024-01-27T02:23:21;12.52;;;2.88;;
39502;SDS011;26970;49.900;10.774;2024-01-27T02:25:47;8.18;;;2.78;;
39502;SDS011;26970;49.900;10.774;2024-01-27T02:28:12;5.30;;;2.40;;
39502;SDS011;26970;49.900;10.774;2024-01-27T02:30:38;12.63;;;2.78;;
39502;SDS011;26970;49.900;10.774;2024-01-27T02:33:04;9.25;;;2.30;;
39502;SDS011;26970;49.900;10.774;2024-01-27T02:35:30;8.70;;;2.92;;
39502;SDS011;26970;49.900;10.774;2024-01-27T02:37:55;8.98;;;2.75;;
39502;SDS011;26970;49.900;10.774;2024-01-27T02:40:21;8.40;;;2.80;;
39502;SDS011;26970;49.900;10.774;2024-01-27T02:42:46;5.18;;;2.65;;
39502;SDS011;26970;49.900;10.774;2024-01-27T02:45:12;8.18;;;2.25;;
39502;SDS011;26970;49.900;10.774;2024-01-27T02:47:38;10.40;;;2.92;;
39502;SDS011;26970;49.900;10.774;2024-01-27T02:50:04;9.25;;;3.03;;
39502;SDS011;26970;49.900;10.774;2024-01-27T02:52:31;10.65;;;3.25;;
39502;SDS011;26970;49.900;10.774;2024-01-27T02:54:57;5.90;;;2.20;;
39502;SDS011;26970;49.900;10.774;2024-01-27T02:57:23;11.95;;;2.63;;
39502;SDS011;26970;49.900;10.774;2024-01-27T02:59:48;8.68;;;2.55;;
39502;SDS011;26970;49.900;10.774;2024-01-27T03:02:14;15.88;;;3.33;;
39502;SDS011;26970;49.900;10.774;2024-01-27T03:04:40;6.20;;;2.10;;
39502;SDS011;26970;49.900;10.774;2024-01-27T03:07:06;6.43;;;2.67;;
39502;SDS011;26970;49.900;10.774;2024-01-27T03:09:31;7.78;;;2.47;;
39502;SDS011;26970;49.900;10.774;2024-01-27T03:11:57;7.43;;;2.35;;
39502;SDS011;26970;49.900;10.774;2024-01-27T03:14:23;16.63;;;2.22;;
39502;SDS011;26970;49.900;10.774;2024-01-27T03:16:49;5.45;;;2.10;;
39502;SDS011;26970;49.900;10.774;2024-01-27T03:19:15;7.35;;;2.10;;
39502;SDS011;26970;49.900;10.774;2024-01-27T03:21:40;5.40;;;2.05;;
39502;SDS011;26970;49.900;10.774;2024-01-27T03:24:06;9.30;;;2.13;;
39502;SDS011;26970;49.900;10.774;2024-01-27T03:26:32;9.18;;;2.33;;
39502;SDS011;26970;49.900;10.774;2024-01-27T03:28:57;8.35;;;2.50;;
39502;SDS011;26970;49.900;10.774;2024-01-27T03:31:23;16.83;;;2.58;;
39502;SDS011;26970;49.900;10.774;2024-01-27T03:33:54;10.43;;;1.92;;
39502;SDS011;26970;49.900;10.774;2024-01-27T03:36:21;14.23;;;3.08;;
39502;SDS011;26970;49.900;10.774;2024-01-27T03:38:47;10.30;;;2.25;;
39502;SDS011;26970;49.900;10.774;2024-01-27T03:41:12;9.90;;;2.20;;
39502;SDS011;26970;49.900;10.774;2024-01-27T03:43:38;7.05;;;2.63;;
39502;SDS011;26970;49.900;10.774;2024-01-27T03:46:04;13.80;;;2.47;;
39502;SDS011;26970;49.900;10.774;2024-01-27T03:48:29;10.20;;;2.50;;
39502;SDS011;26970;49.900;10.774;2024-01-27T03:50:55;12.13;;;2.78;;
39502;SDS011;26970;49.900;10.774;2024-01-27T03:53:20;8.50;;;2.40;;
39502;SDS011;26970;49.900;10.774;2024-01-27T03:55:46;10.05;;;2.70;;
39502;SDS011;26970;49.900;10.774;2024-01-27T03:58:12;13.60;;;2.80;;
39502;SDS011;26970;49.900;10.774;2024-01-27T04:00:37;5.65;;;2.00;;
39502;SDS011;26970;49.900;10.774;2024-01-27T04:03:03;11.30;;;3.13;;
39502;SDS011;26970;49.900;10.774;2024-01-27T04:05:29;11.63;;;2.53;;
39502;SDS011;26970;49.900;10.774;2024-01-27T04:07:55;9.27;;;2.45;;
39502;SDS011;26970;49.900;10.774;2024-01-27T04:10:21;6.93;;;2.53;;
39502;SDS011;26970;49.900;10.774;2024-01-27T04:12:47;8.43;;;2.17;;
39502;SDS011;26970;49.900;10.774;2024-01-27T04:15:13;13.95;;;2.45;;
39502;SDS011;26970;49.900;10.774;2024-01-27T04:17:39;8.65;;;2.90;;
39502;SDS011;26970;49.900;10.774;2024-01-27T04:20:05;9.85;;;2.20;;
39502;SDS011;26970;49.900;10.774;2024-01-27T04:22:32;7.90;;;2.55;;
39502;SDS011;26970;49.900;10.774;2024-01-27T04:24:58;8.18;;;2.20;;
39502;SDS011;26970;49.900;10.774;2024-01-27T04:27:24;8.68;;;2.72;;
39502;SDS011;26970;49.900;10.774;2024-01-27T04:29:49;11.20;;;2.53;;
39502;SDS011;26970;49.900;10.774;2024-01-27T04:32:15;8.48;;;2.38;;
39502;SDS011;26970;49.900;10.774;2024-01-27T04:34:40;8.55;;;2.90;;
39502;SDS011;26970;49.900;10.774;2024-01-27T04:37:06;7.20;;;2.10;;
39502;SDS011;26970;49.900;10.774;2024-01-27T04:39:31;9.90;;;2.60;;
39502;SDS011;26970;49.900;10.774;2024-01-27T04:41:57;12.30;;;2.97;;
39502;SDS011;26970;49.900;10.774;2024-01-27T04:44:22;9.10;;;2.28;;
39502;SDS011;26970;49.900;10.774;2024-01-27T04:46:48;9.68;;;2.47;;
39502;SDS011;26970;49.900;10.774;2024-01-27T04:49:14;7.13;;;2.00;;
39502;SDS011;26970;49.900;10.774;2024-01-27T04:51:40;14.88;;;2.85;;
39502;SDS011;26970;49.900;10.774;2024-01-27T04:54:06;8.80;;;2.42;;
39502;SDS011;26970;49.900;10.774;2024-01-27T04:56:32;11.20;;;3.15;;
39502;SDS011;26970;49.900;10.774;2024-01-27T04:58:58;6.80;;;2.50;;
39502;SDS011;26970;49.900;10.774;2024-01-27T05:01:23;8.40;;;2.67;;
39502;SDS011;26970;49.900;10.774;2024-01-27T05:03:49;6.40;;;2.08;;
39502;SDS011;26970;49.900;10.774;2024-01-27T05:06:15;9.88;;;2.42;;
39502;SDS011;26970;49.900;10.774;2024-01-27T05:08:40;9.40;;;2.40;;
39502;SDS011;26970;49.900;10.774;2024-01-27T05:11:06;15.38;;;2.88;;
39502;SDS011;26970;49.900;10.774;2024-01-27T05:13:32;8.77;;;2.90;;
39502;SDS011;26970;49.900;10.774;2024-01-27T05:15:57;7.90;;;2.80;;
39502;SDS011;26970;49.900;10.774;2024-01-27T05:18:23;9.20;;;2.85;;
39502;SDS011;26970;49.900;10.774;2024-01-27T05:20:48;12.48;;;4.13;;
39502;SDS011;26970;49.900;10.774;2024-01-27T05:23:14;9.25;;;3.03;;
39502;SDS011;26970;49.900;10.774;2024-01-27T05:25:39;16.50;;;3.38;;
39502;SDS011;26970;49.900;10.774;2024-01-27T05:28:05;6.03;;;2.90;;
39502;SDS011;26970;49.900;10.774;2024-01-27T05:30:30;7.30;;;2.63;;
39502;SDS011;26970;49.900;10.774;2024-01-27T05:32:56;8.18;;;2.60;;
39502;SDS011;26970;49.900;10.774;2024-01-27T05:35:21;11.77;;;2.65;;
39502;SDS011;26970;49.900;10.774;2024-01-27T05:37:47;14.55;;;3.03;;
39502;SDS011;26970;49.900;10.774;2024-01-27T05:40:13;11.32;;;2.90;;
39502;SDS011;26970;49.900;10.774;2024-01-27T05:42:39;8.10;;;2.80;;
39502;SDS011;26970;49.900;10.774;2024-01-27T05:45:08;9.32;;;2.22;;
39502;SDS011;26970;49.900;10.774;2024-01-27T05:47:35;6.88;;;2.13;;
39502;SDS011;26970;49.900;10.774;2024-01-27T05:50:00;8.35;;;2.70;;
39502;SDS011;26970;49.900;10.774;2024-01-27T05:52:26;8.27;;;2.45;;
39502;SDS011;26970;49.900;10.774;2024-01-27T05:54:52;15.18;;;2.78;;
39502;SDS011;26970;49.900;10.774;2024-01-27T05:57:17;5.95;;;2.30;;
39502;SDS011;26970;49.900;10.774;2024-01-27T05:59:43;12.23;;;3.08;;
39502;SDS011;26970;49.900;10.774;2024-01-27T06:02:09;8.40;;;2.85;;
39502;SDS011;26970;49.900;10.774;2024-01-27T06:04:34;11.27;;;2.80;;
39502;SDS011;26970;49.900;10.774;2024-01-27T06:07:00;7.30;;;2.50;;
39502;SDS011;26970;49.900;10.774;2024-01-27T06:09:25;13.00;;;2.67;;
39502;SDS011;26970;49.900;10.774;2024-01-27T06:11:51;12.07;;;3.33;;
39502;SDS011;26970;49.900;10.774;2024-01-27T06:14:16;7.18;;;2.65;;
39502;SDS011;26970;49.900;10.774;2024-01-27T06:16:42;12.13;;;2.83;;
39502;SDS011;26970;49.900;10.774;2024-01-27T06:19:08;8.82;;;2.50;;
39502;SDS011;26970;49.900;10.774;2024-01-27T06:21:34;8.68;;;2.08;;
39502;SDS011;26970;49.900;10.774;2024-01-27T06:24:00;11.05;;;2.92;;
39502;SDS011;26970;49.900;10.774;2024-01-27T06:26:25;7.22;;;2.65;;
39502;SDS011;26970;49.900;10.774;2024-01-27T06:28:51;11.93;;;3.00;;
39502;SDS011;26970;49.900;10.774;2024-01-27T06:31:16;15.48;;;3.13;;
39502;SDS011;26970;49.900;10.774;2024-01-27T06:33:42;10.02;;;2.65;;
39502;SDS011;26970;49.900;10.774;2024-01-27T06:36:08;9.85;;;2.40;;
39502;SDS011;26970;49.900;10.774;2024-01-27T06:38:34;10.35;;;3.30;;
39502;SDS011;26970;49.900;10.774;2024-01-27T06:41:02;6.22;;;2.67;;
39502;SDS011;26970;49.900;10.774;2024-01-27T06:43:28;9.52;;;3.83;;
39502;SDS011;26970;49.900;10.774;2024-01-27T06:45:54;6.18;;;2.58;;
39502;SDS011;26970;49.900;10.774;2024-01-27T06:48:22;9.52;;;2.85;;
39502;SDS011;26970;49.900;10.774;2024-01-27T06:50:50;13.00;;;2.85;;
39502;SDS011;26970;49.900;10.774;2024-01-27T06:53:15;7.90;;;2.80;;
39502;SDS011;26970;49.900;10.774;2024-01-27T06:55:41;9.20;;;2.53;;
39502;SDS011;26970;49.900;10.774;2024-01-27T06:58:06;8.65;;;2.70;;
39502;SDS011;26970;49.900;10.774;2024-01-27T07:00:32;16.15;;;2.65;;
39502;SDS011;26970;49.900;10.774;2024-01-27T07:02:58;12.15;;;2.97;;
39502;SDS011;26970;49.900;10.774;2024-01-27T07:05:23;10.00;;;2.92;;
39502;SDS011;26970;49.900;10.774;2024-01-27T07:07:49;14.80;;;2.97;;
39502;SDS011;26970;49.900;10.774;2024-01-27T07:10:14;11.40;;;2.80;;
39502;SDS011;26970;49.900;10.774;2024-01-27T07:12:40;8.18;;;2.75;;
39502;SDS011;26970;49.900;10.774;2024-01-27T07:15:06;7.05;;;2.60;;
39502;SDS011;26970;49.900;10.774;2024-01-27T07:17:31;8.38;;;2.78;;
39502;SDS011;26970;49.900;10.774;2024-01-27T07:19:57;9.80;;;2.67;;
39502;SDS011;26970;49.900;10.774;2024-01-27T07:22:23;14.95;;;4.10;;
39502;SDS011;26970;49.900;10.774;2024-01-27T07:24:49;9.10;;;2.50;;
39502;SDS011;26970;49.900;10.774;2024-01-27T07:27:16;13.50;;;3.35;;
39502;SDS011;26970;49.900;10.774;2024-01-27T07:29:43;8.02;;;2.65;;
39502;SDS011;26970;49.900;10.774;2024-01-27T07:32:08;10.35;;;2.70;;
39502;SDS011;26970;49.900;10.774;2024-01-27T07:34:38;9.95;;;2.58;;
39502;SDS011;26970;49.900;10.774;2024-01-27T07:37:08;11.52;;;3.03;;
39502;SDS011;26970;49.900;10.774;2024-01-27T07:39:34;9.43;;;2.65;;
39502;SDS011;26970;49.900;10.774;2024-01-27T07:41:59;11.10;;;2.97;;
39502;SDS011;26970;49.900;10.774;2024-01-27T07:44:25;14.40;;;2.70;;
39502;SDS011;26970;49.900;10.774;2024-01-27T07:46:50;8.93;;;3.55;;
39502;SDS011;26970;49.900;10.774;2024-01-27T07:49:16;7.13;;;2.60;;
39502;SDS011;26970;49.900;10.774;2024-01-27T07:51:42;14.75;;;3.58;;
39502;SDS011;26970;49.900;10.774;2024-01-27T07:54:08;11.45;;;2.88;;
39502;SDS011;26970;49.900;10.774;2024-01-27T07:56:34;15.95;;;3.60;;
39502;SDS011;26970;49.900;10.774;2024-01-27T07:58:59;13.73;;;3.28;;
39502;SDS011;26970;49.900;10.774;2024-01-27T08:01:25;15.95;;;3.58;;
39502;SDS011;26970;49.900;10.774;2024-01-27T08:03:50;11.98;;;3.15;;
39502;SDS011;26970;49.900;10.774;2024-01-27T08:06:16;5.70;;;3.13;;
39502;SDS011;26970;49.900;10.774;2024-01-27T08:08:46;9.98;;;3.60;;
39502;SDS011;26970;49.900;10.774;2024-01-27T08:11:13;8.75;;;3.33;;
39502;SDS011;26970;49.900;10.774;2024-01-27T08:13:40;6.82;;;2.95;;
39502;SDS011;26970;49.900;10.774;2024-01-27T08:16:06;12.93;;;3.78;;
39502;SDS011;26970;49.900;10.774;2024-01-27T08:18:34;12.82;;;3.50;;
39502;SDS011;26970;49.900;10.774;2024-01-27T08:21:01;12.93;;;3.63;;
39502;SDS011;26970;49.900;10.774;2024-01-27T08:23:27;9.57;;;3.45;;
39502;SDS011;26970;49.900;10.774;2024-01-27T08:25:53;13.05;;;3.28;;
39502;SDS011;26970;49.900;10.774;2024-01-27T08:28:19;7.50;;;3.10;;
39502;SDS011;26970;49.900;10.774;2024-01-27T08:30:44;6.93;;;2.78;;
39502;SDS011;26970;49.900;10.774;2024-01-27T08:33:10;10.02;;;3.20;;
39502;SDS011;26970;49.900;10.774;2024-01-27T08:35:35;7.93;;;2.92;;
39502;SDS011;26970;49.900;10.774;2024-01-27T08:38:01;6.10;;;2.50;;
39502;SDS011;26970;49.900;10.774;2024-01-27T08:40:28;11.05;;;3.20;;
39502;SDS011;26970;49.900;10.774;2024-01-27T08:42:54;12.18;;;3.22;;
39502;SDS011;26970;49.900;10.774;2024-01-27T08:45:19;8.00;;;3.00;;
39502;SDS011;26970;49.900;10.774;2024-01-27T08:47:45;12.15;;;3.25;;
39502;SDS011;26970;49.900;10.774;2024-01-27T08:50:10;9.88;;;3.13;;
39502;SDS011;26970;49.900;10.774;2024-01-27T08:52:36;12.73;;;3.38;;
39502;SDS011;26970;49.900;10.774;2024-01-27T08:55:02;15.13;;;3.75;;
39502;SDS011;26970;49.900;10.774;2024-01-27T08:57:27;27.08;;;14.88;;
39502;SDS011;26970;49.900;10.774;2024-01-27T08:59:53;24.05;;;14.13;;
39502;SDS011;26970;49.900;10.774;2024-01-27T09:02:19;13.23;;;5.97;;
39502;SDS011;26970;49.900;10.774;2024-01-27T09:04:44;13.30;;;5.55;;
39502;SDS011;26970;49.900;10.774;2024-01-27T09:07:11;9.48;;;3.53;;
39502;SDS011;26970;49.900;10.774;2024-01-27T09:09:36;11.18;;;6.55;;
39502;SDS011;26970;49.900;10.774;2024-01-27T09:12:03;21.65;;;13.18;;
39502;SDS011;26970;49.900;10.774;2024-01-27T09:14:29;13.32;;;9.20;;
39502;SDS011;26970;49.900;10.774;2024-01-27T09:16:55;12.38;;;4.97;;
39502;SDS011;26970;49.900;10.774;2024-01-27T09:19:20;9.02;;;3.90;;
39502;SDS011;26970;49.900;10.774;2024-01-27T09:21:46;9.40;;;3.05;;
39502;SDS011;26970;49.900;10.774;2024-01-27T09:24:12;8.05;;;3.38;;
39502;SDS011;26970;49.900;10.774;2024-01-27T09:26:38;11.23;;;3.10;;
39502;SDS011;26970;49.900;10.774;2024-01-27T09:29:03;9.35;;;3.03;;
39502;SDS011;26970;49.900;10.774;2024-01-27T09:31:29;12.55;;;3.30;;
39502;SDS011;26970;49.900;10.774;2024-01-27T09:33:55;13.73;;;3.30;;
39502;SDS011;26970;49.900;10.774;2024-01-27T09:36:21;11.25;;;3.17;;
39502;SDS011;26970;49.900;10.774;2024-01-27T09:38:46;8.90;;;2.83;;
39502;SDS011;26970;49.900;10.774;2024-01-27T09:41:12;7.18;;;2.60;;
39502;SDS011;26970;49.900;10.774;2024-01-27T09:43:41;12.73;;;2.75;;
39502;SDS011;26970;49.900;10.774;2024-01-27T09:46:14;12.60;;;3.20;;
39502;SDS011;26970;49.900;10.774;2024-01-27T09:48:40;9.55;;;2.80;;
39502;SDS011;26970;49.900;10.774;2024-01-27T09:51:07;9.10;;;3.08;;
39502;SDS011;26970;49.900;10.774;2024-01-27T09:53:33;7.63;;;2.85;;
39502;SDS011;26970;49.900;10.774;2024-01-27T09:56:00;16.35;;;2.65;;
39502;SDS011;26970;49.900;10.774;2024-01-27T09:58:29;13.13;;;2.80;;
39502;SDS011;26970;49.900;10.774;2024-01-27T10:00:56;9.38;;;3.28;;
39502;SDS011;26970;49.900;10.774;2024-01-27T10:03:23;8.43;;;2.65;;
39502;SDS011;26970;49.900;10.774;2024-01-27T10:05:51;12.85;;;2.75;;
39502;SDS011;26970;49.900;10.774;2024-01-27T10:08:21;13.05;;;3.60;;
39502;SDS011;26970;49.900;10.774;2024-01-27T10:10:47;9.70;;;2.70;;
39502;SDS011;26970;49.900;10.774;2024-01-27T10:13:23;11.65;;;3.17;;
39502;SDS011;26970;49.900;10.774;2024-01-27T10:16:01;7.78;;;3.38;;
39502;SDS011;26970;49.900;10.774;2024-01-27T10:18:28;12.07;;;3.08;;
39502;SDS011;26970;49.900;10.774;2024-01-27T10:20:57;12.88;;;3.00;;
39502;SDS011;26970;49.900;10.774;2024-01-27T10:23:23;12.95;;;3.55;;
39502;SDS011;26970;49.900;10.774;2024-01-27T10:25:49;10.50;;;2.90;;
39502;SDS011;26970;49.900;10.774;2024-01-27T10:28:15;12.55;;;3.00;;
39502;SDS011;26970;49.900;10.774;2024-01-27T10:30:42;8.35;;;2.55;;
39502;SDS011;26970;49.900;10.774;2024-01-27T10:33:08;9.85;;;2.92;;
39502;SDS011;26970;49.900;10.774;2024-01-27T10:35:41;8.95;;;3.05;;
39502;SDS011;26970;49.900;10.774;2024-01-27T10:38:07;14.75;;;4.25;;
39502;SDS011;26970;49.900;10.774;2024-01-27T10:40:35;9.30;;;2.88;;
39502;SDS011;26970;49.900;10.774;2024-01-27T10:43:03;14.73;;;3.38;;
39502;SDS011;26970;49.900;10.774;2024-01-27T10:45:36;8.73;;;2.88;;
39502;SDS011;26970;49.900;10.774;2024-01-27T10:48:03;11.20;;;3.55;;
39502;SDS011;26970;49.900;10.774;2024-01-27T10:50:31;15.52;;;3.22;;
39502;SDS011;26970;49.900;10.774;2024-01-27T10:52:59;9.95;;;3.35;;
39502;SDS011;26970;49.900;10.774;2024-01-27T10:55:27;9.35;;;3.13;;
39502;SDS011;26970;49.900;10.774;2024-01-27T10:57:54;9.48;;;3.13;;
39502;SDS011;26970;49.900;10.774;2024-01-27T11:00:21;9.77;;;2.60;;
39502;SDS011;26970;49.900;10.774;2024-01-27T11:02:48;14.02;;;3.08;;
39502;SDS011;26970;49.900;10.774;2024-01-27T11:05:18;10.38;;;2.53;;
39502;SDS011;26970;49.900;10.774;2024-01-27T11:07:44;12.77;;;2.95;;
39502;SDS011;26970;49.900;10.774;2024-01-27T11:10:12;11.13;;;2.85;;
39502;SDS011;26970;49.900;10.774;2024-01-27T11:12:37;9.95;;;2.80;;
39502;SDS011;26970;49.900;10.774;2024-01-27T11:15:04;15.57;;;2.90;;
39502;SDS011;26970;49.900;10.774;2024-01-27T11:17:40;10.25;;;2.55;;
39502;SDS011;26970;49.900;10.774;2024-01-27T11:20:07;11.60;;;2.50;;
39502;SDS011;26970;49.900;10.774;2024-01-27T11:22:34;6.88;;;2.50;;
39502;SDS011;26970;49.900;10.774;2024-01-27T11:27:41;11.52;;;2.65;;
39502;SDS011;26970;49.900;10.774;2024-01-27T11:30:23;8.80;;;3.05;;
39502;SDS011;26970;49.900;10.774;2024-01-27T11:32:52;15.15;;;2.22;;
39502;SDS011;26970;49.900;10.774;2024-01-27T11:35:18;8.02;;;2.38;;
39502;SDS011;26970;49.900;10.774;2024-01-27T11:37:43;11.32;;;2.22;;
39502;SDS011;26970;49.900;10.774;2024-01-27T11:40:09;10.43;;;2.53;;
39502;SDS011;26970;49.900;10.774;2024-01-27T11:42:35;7.47;;;2.35;;
39502;SDS011;26970;49.900;10.774;2024-01-27T11:45:01;16.52;;;3.15;;
39502;SDS011;26970;49.900;10.774;2024-01-27T11:47:27;10.60;;;2.50;;
39502;SDS011;26970;49.900;10.774;2024-01-27T11:49:53;15.32;;;2.90;;
39502;SDS011;26970;49.900;10.774;2024-01-27T11:52:22;13.35;;;3.03;;
39502;SDS011;26970;49.900;10.774;2024-01-27T11:54:57;7.57;;;2.10;;
39502;SDS011;26970;49.900;10.774;2024-01-27T11:57:24;8.38;;;2.17;;
39502;SDS011;26970;49.900;10.774;2024-01-27T11:59:50;5.22;;;2.08;;
39502;SDS011;26970;49.900;10.774;2024-01-27T12:02:17;9.38;;;2.70;;
39502;SDS011;26970;49.900;10.774;2024-01-27T12:04:43;7.25;;;2.10;;
39502;SDS011;26970;49.900;10.774;2024-01-27T12:07:08;6.82;;;1.73;;
39502;SDS011;26970;49.900;10.774;2024-01-27T12:09:37;7.13;;;2.20;;
39502;SDS011;26970;49.900;10.774;2024-01-27T12:12:03;10.45;;;2.10;;
39502;SDS011;26970;49.900;10.774;2024-01-27T12:14:46;9.40;;;3.33;;
39502;SDS011;26970;49.900;10.774;2024-01-27T12:17:13;13.35;;;2.53;;
39502;SDS011;26970;49.900;10.774;2024-01-27T12:19:45;9.88;;;2.30;;
39502;SDS011;26970;49.900;10.774;2024-01-27T12:22:25;12.30;;;2.58;;
39502;SDS011;26970;49.900;10.774;2024-01-27T12:24:52;10.93;;;2.13;;
39502;SDS011;26970;49.900;10.774;2024-01-27T12:27:19;8.80;;;2.42;;
39502;SDS011;26970;49.900;10.774;2024-01-27T12:29:46;7.40;;;2.20;;
39502;SDS011;26970;49.900;10.774;2024-01-27T12:32:14;8.32;;;2.10;;
39502;SDS011;26970;49.900;10.774;2024-01-27T12:34:40;13.48;;;2.80;;
39502;SDS011;26970;49.900;10.774;2024-01-27T12:37:07;11.50;;;2.40;;
39502;SDS011;26970;49.900;10.774;2024-01-27T12:39:36;16.88;;;2.75;;
39502;SDS011;26970;49.900;10.774;2024-01-27T12:42:03;11.10;;;2.40;;
39502;SDS011;26970;49.900;10.774;2024-01-27T12:44:29;4.50;;;1.80;;
39502;SDS011;26970;49.900;10.774;2024-01-27T12:46:54;12.15;;;2.80;;
39502;SDS011;26970;49.900;10.774;2024-01-27T12:49:22;5.38;;;1.83;;
39502;SDS011;26970;49.900;10.774;2024-01-27T12:51:47;10.32;;;2.63;;
39502;SDS011;26970;49.900;10.774;2024-01-27T12:54:13;11.27;;;2.40;;
39502;SDS011;26970;49.900;10.774;2024-01-27T12:56:39;7.75;;;2.20;;
39502;SDS011;26970;49.900;10.774;2024-01-27T12:59:05;8.52;;;2.08;;
39502;SDS011;26970;49.900;10.774;2024-01-27T13:01:33;6.80;;;2.45;;
39502;SDS011;26970;49.900;10.774;2024-01-27T13:03:58;11.75;;;2.55;;
39502;SDS011;26970;49.900;10.774;2024-01-27T13:06:25;7.18;;;1.70;;
39502;SDS011;26970;49.900;10.774;2024-01-27T13:08:51;9.20;;;1.92;;
39502;SDS011;26970;49.900;10.774;2024-01-27T13:11:17;8.95;;;2.08;;
39502;SDS011;26970;49.900;10.774;2024-01-27T13:13:42;6.00;;;1.98;;
39502;SDS011;26970;49.900;10.774;2024-01-27T13:16:08;7.95;;;2.58;;
39502;SDS011;26970;49.900;10.774;2024-01-27T13:18:34;13.30;;;2.47;;
39502;SDS011;26970;49.900;10.774;2024-01-27T13:21:00;4.45;;;2.13;;
39502;SDS011;26970;49.900;10.774;2024-01-27T13:23:26;8.77;;;2.00;;
39502;SDS011;26970;49.900;10.774;2024-01-27T13:25:51;11.90;;;2.40;;
39502;SDS011;26970;49.900;10.774;2024-01-27T13:28:17;5.93;;;2.65;;
39502;SDS011;26970;49.900;10.774;2024-01-27T13:30:43;11.93;;;2.40;;
39502;SDS011;26970;49.900;10.774;2024-01-27T13:33:08;6.22;;;2.10;;
39502;SDS011;26970;49.900;10.774;2024-01-27T13:35:34;9.60;;;2.85;;
39502;SDS011;26970;49.900;10.774;2024-01-27T13:37:59;10.35;;;2.92;;
39502;SDS011;26970;49.900;10.774;2024-01-27T13:40:25;7.32;;;2.65;;
39502;SDS011;26970;49.900;10.774;2024-01-27T13:42:51;14.35;;;2.92;;
39502;SDS011;26970;49.900;10.774;2024-01-27T13:45:18;15.80;;;3.10;;
39502;SDS011;26970;49.900;10.774;2024-01-27T13:47:43;9.80;;;2.10;;
39502;SDS011;26970;49.900;10.774;2024-01-27T13:50:09;12.57;;;2.95;;
39502;SDS011;26970;49.900;10.774;2024-01-27T13:52:36;5.93;;;1.77;;
39502;SDS011;26970;49.900;10.774;2024-01-27T13:55:02;7.20;;;2.65;;
39502;SDS011;26970;49.900;10.774;2024-01-27T13:57:27;8.40;;;2.03;;
39502;SDS011;26970;49.900;10.774;2024-01-27T13:59:53;10.35;;;2.33;;
39502;SDS011;26970;49.900;10.774;2024-01-27T14:02:18;14.63;;;3.00;;
39502;SDS011;26970;49.900;10.774;2024-01-27T14:04:44;7.45;;;2.08;;
39502;SDS011;26970;49.900;10.774;2024-01-27T14:07:10;7.93;;;2.25;;
39502;SDS011;26970;49.900;10.774;2024-01-27T14:09:35;10.65;;;2.60;;
39502;SDS011;26970;49.900;10.774;2024-01-27T14:12:01;13.88;;;2.38;;
39502;SDS011;26970;49.900;10.774;2024-01-27T14:14:27;10.25;;;2.33;;
39502;SDS011;26970;49.900;10.774;2024-01-27T14:16:53;10.10;;;2.60;;
39502;SDS011;26970;49.900;10.774;2024-01-27T14:19:19;6.97;;;2.10;;
39502;SDS011;26970;49.900;10.774;2024-01-27T14:21:45;22.63;;;7.63;;
39502;SDS011;26970;49.900;10.774;2024-01-27T14:24:10;11.52;;;3.58;;
39502;SDS011;26970;49.900;10.774;2024-01-27T14:26:36;9.05;;;2.58;;